createdAt,value
2024-03-12T00:02:24.489Z,1.65
2024-03-12T00:05:13.803Z,1.95
2024-03-12T00:08:03.134Z,1.85
2024-03-12T00:10:52.827Z,1.92
2024-03-12T00:13:42.924Z,1.98
2024-03-12T00:16:35.642Z,1.90
2024-03-12T00:19:25.536Z,1.90
2024-03-12T00:22:14.303Z,2.10
2024-03-12T00:25:03.117Z,2.10
2024-03-12T00:27:52.976Z,1.60
2024-03-12T00:30:42.781Z,1.98
2024-03-12T00:33:33.537Z,2.13
2024-03-12T00:36:22.562Z,2.70
2024-03-12T00:39:18.709Z,1.73
2024-03-12T00:42:08.373Z,1.92
2024-03-12T00:44:57.026Z,1.80
2024-03-12T00:47:48.486Z,1.73
2024-03-12T00:50:38.430Z,1.75
2024-03-12T00:53:26.577Z,1.70
2024-03-12T00:56:16.796Z,1.58
2024-03-12T00:59:05.212Z,1.70
2024-03-12T01:01:54.494Z,1.60
2024-03-12T01:04:42.935Z,1.77
2024-03-12T01:07:34.762Z,1.60
2024-03-12T01:10:23.932Z,1.60
2024-03-12T01:13:12.744Z,1.63
2024-03-12T01:16:01.314Z,1.80
2024-03-12T01:18:49.824Z,1.60
2024-03-12T01:21:38.072Z,1.80
2024-03-12T01:27:18.347Z,1.58
2024-03-12T01:32:59.892Z,1.70
2024-03-12T01:35:49.321Z,1.80
2024-03-12T01:38:37.560Z,1.52
2024-03-12T01:41:26.803Z,1.70
2024-03-12T01:44:16.584Z,1.73
2024-03-12T01:47:06.321Z,1.77
2024-03-12T01:49:56.173Z,1.75
2024-03-12T01:52:45.312Z,1.50
2024-03-12T01:55:33.348Z,1.70
2024-03-12T01:58:23.029Z,1.92
2024-03-12T02:01:14.656Z,1.58
2024-03-12T02:04:02.731Z,1.48
2024-03-12T02:06:50.895Z,2.00
2024-03-12T02:09:40.567Z,1.70
2024-03-12T02:12:28.938Z,1.85
2024-03-12T02:15:20.112Z,1.98
2024-03-12T02:18:12.143Z,1.92
2024-03-12T02:21:00.755Z,1.50
2024-03-12T02:23:50.345Z,1.95
2024-03-12T02:26:38.786Z,1.80
2024-03-12T02:29:27.148Z,2.00
2024-03-12T02:32:15.672Z,2.50
2024-03-12T02:35:03.930Z,2.13
2024-03-12T02:37:51.961Z,2.60
2024-03-12T02:40:43.916Z,2.35
2024-03-12T02:43:32.554Z,2.03
2024-03-12T02:46:24.739Z,1.90
2024-03-12T02:49:15.506Z,2.00
2024-03-12T02:52:04.406Z,2.50
2024-03-12T02:54:53.461Z,2.50
2024-03-12T02:57:43.455Z,2.50
2024-03-12T03:00:32.074Z,2.00
2024-03-12T03:03:19.790Z,2.47
2024-03-12T03:06:08.845Z,2.10
2024-03-12T03:08:57.301Z,2.13
2024-03-12T03:11:47.282Z,2.42
2024-03-12T03:14:37.270Z,2.40
2024-03-12T03:17:25.966Z,2.40
2024-03-12T03:20:16.630Z,2.45
2024-03-12T03:23:06.002Z,2.63
2024-03-12T03:25:54.853Z,2.13
2024-03-12T03:28:42.691Z,2.50
2024-03-12T03:31:32.474Z,2.55
2024-03-12T03:34:21.847Z,2.67
2024-03-12T03:37:10.450Z,2.42
2024-03-12T03:39:59.057Z,2.30
2024-03-12T03:42:47.409Z,2.53
2024-03-12T03:45:40.329Z,2.20
2024-03-12T03:48:30.029Z,2.10
2024-03-12T03:51:18.389Z,2.40
2024-03-12T03:54:08.875Z,2.25
2024-03-12T03:56:57.629Z,2.70
2024-03-12T03:59:48.239Z,2.50
2024-03-12T04:02:36.990Z,2.50
2024-03-12T04:05:28.537Z,2.17
2024-03-12T04:08:18.099Z,2.15
2024-03-12T04:11:06.892Z,2.50
2024-03-12T04:13:56.529Z,3.33
2024-03-12T04:16:45.782Z,2.47
2024-03-12T04:19:36.791Z,2.38
2024-03-12T04:22:28.317Z,2.70
2024-03-12T04:25:19.202Z,2.75
2024-03-12T04:28:15.993Z,2.58
2024-03-12T04:31:08.528Z,2.50
2024-03-12T04:33:56.774Z,2.47
2024-03-12T04:36:46.779Z,2.97
2024-03-12T04:39:42.787Z,2.78
2024-03-12T04:42:31.534Z,3.25
2024-03-12T04:45:19.659Z,2.90
2024-03-12T04:48:08.563Z,3.17
2024-03-12T04:50:56.784Z,2.65
2024-03-12T04:53:45.838Z,2.90
2024-03-12T04:56:35.616Z,2.75
2024-03-12T04:59:23.985Z,3.03
2024-03-12T05:02:13.140Z,3.40
2024-03-12T05:05:01.776Z,3.78
2024-03-12T05:07:50.885Z,3.58
2024-03-12T05:10:39.609Z,3.10
2024-03-12T05:13:29.381Z,3.60
2024-03-12T05:16:18.062Z,3.80
2024-03-12T05:19:12.949Z,3.75
2024-03-12T05:22:02.153Z,3.50
2024-03-12T05:24:50.181Z,3.72
2024-03-12T05:27:40.251Z,4.30
2024-03-12T05:30:31.419Z,4.03
2024-03-12T05:33:28.225Z,4.32
2024-03-12T05:36:17.050Z,3.90
2024-03-12T05:39:06.755Z,4.47
2024-03-12T05:42:09.108Z,4.20
2024-03-12T05:45:14.256Z,4.45
2024-03-12T05:48:12.696Z,4.68
2024-03-12T05:51:01.085Z,4.78
2024-03-12T05:53:50.200Z,4.57
2024-03-12T05:56:39.355Z,4.88
2024-03-12T05:59:28.163Z,5.18
2024-03-12T06:02:16.457Z,4.85
2024-03-12T06:05:07.334Z,4.97
2024-03-12T06:07:55.770Z,5.05
2024-03-12T06:10:44.209Z,4.88
2024-03-12T06:13:32.257Z,5.43
2024-03-12T06:16:20.845Z,5.13
2024-03-12T06:19:09.331Z,4.45
2024-03-12T06:21:59.654Z,4.60
2024-03-12T06:24:50.475Z,4.78
2024-03-12T06:27:40.236Z,4.80
2024-03-12T06:30:29.729Z,4.53
2024-03-12T06:33:19.365Z,4.32
2024-03-12T06:36:09.570Z,5.22
2024-03-12T06:38:59.355Z,4.28
2024-03-12T06:41:48.320Z,4.93
2024-03-12T06:44:42.083Z,4.47
2024-03-12T06:47:34.652Z,4.55
2024-03-12T06:50:25.753Z,4.20
2024-03-12T06:53:17.070Z,4.18
2024-03-12T06:56:09.192Z,3.60
2024-03-12T06:58:58.800Z,3.58
2024-03-12T07:01:52.787Z,3.58
2024-03-12T07:04:48.808Z,3.42
2024-03-12T07:07:37.748Z,3.50
2024-03-12T07:10:26.739Z,3.60
2024-03-12T07:13:16.676Z,3.30
2024-03-12T07:16:05.307Z,3.50
2024-03-12T07:18:53.299Z,2.92
2024-03-12T07:21:41.567Z,2.97
2024-03-12T07:24:30.540Z,3.10
2024-03-12T07:27:19.861Z,3.10
2024-03-12T07:30:12.425Z,2.80
2024-03-12T07:33:01.527Z,3.00
2024-03-12T07:35:51.151Z,2.63
2024-03-12T07:38:39.947Z,2.70
2024-03-12T07:41:29.367Z,2.85
2024-03-12T07:44:18.441Z,2.55
2024-03-12T07:47:08.925Z,2.20
2024-03-12T07:49:57.586Z,2.50
2024-03-12T07:52:48.505Z,2.35
2024-03-12T07:55:37.973Z,2.25
2024-03-12T07:58:32.164Z,1.85
2024-03-12T08:01:23.370Z,2.13
2024-03-12T08:04:14.826Z,1.88
2024-03-12T08:07:10.407Z,2.38
2024-03-12T08:10:07.748Z,2.03
2024-03-12T08:12:57.286Z,1.90
2024-03-12T08:15:48.720Z,1.88
2024-03-12T08:18:38.776Z,1.95
2024-03-12T08:21:37.354Z,2.05
2024-03-12T08:24:29.313Z,2.00
2024-03-12T08:27:19.868Z,1.83
2024-03-12T08:30:11.888Z,1.85
2024-03-12T08:33:01.599Z,1.80
2024-03-12T08:35:50.542Z,1.92
2024-03-12T08:38:40.832Z,1.67
2024-03-12T08:41:31.016Z,2.10
2024-03-12T08:44:19.875Z,2.03
2024-03-12T08:47:13.452Z,1.67
2024-03-12T08:50:05.112Z,1.75
2024-03-12T08:52:59.978Z,2.25
2024-03-12T08:55:52.011Z,1.70
2024-03-12T08:58:41.801Z,1.52
2024-03-12T09:01:33.612Z,1.80
2024-03-12T09:04:24.736Z,1.60
2024-03-12T09:07:16.206Z,1.92
2024-03-12T09:10:08.195Z,1.80
2024-03-12T09:13:01.103Z,1.88
2024-03-12T09:15:56.452Z,1.60
2024-03-12T09:18:47.648Z,2.00
2024-03-12T09:21:37.675Z,1.52
2024-03-12T09:24:30.461Z,1.60
2024-03-12T09:30:18.757Z,1.75
2024-03-12T09:33:09.777Z,1.70
2024-03-12T09:36:00.074Z,1.58
2024-03-12T09:38:52.508Z,1.20
2024-03-12T09:41:47.727Z,1.50
2024-03-12T09:44:39.883Z,1.52
2024-03-12T09:47:31.205Z,1.25
2024-03-12T09:50:25.259Z,1.45
2024-03-12T09:53:17.601Z,1.58
2024-03-12T09:56:10.419Z,1.30
2024-03-12T09:59:02.269Z,2.72
2024-03-12T10:01:52.718Z,1.50
2024-03-12T10:04:44.280Z,1.70
2024-03-12T10:07:38.489Z,1.50
2024-03-12T10:10:28.740Z,1.40
2024-03-12T10:13:19.805Z,1.60
2024-03-12T10:16:10.645Z,1.42
2024-03-12T10:19:16.709Z,1.15
2024-03-12T10:22:22.338Z,1.50
2024-03-12T10:25:13.120Z,1.45
2024-03-12T10:28:07.749Z,1.40
2024-03-12T10:31:11.849Z,1.42
2024-03-12T10:34:11.836Z,1.48
2024-03-12T10:37:03.727Z,1.30
2024-03-12T10:39:56.043Z,1.70
2024-03-12T10:43:00.058Z,1.53
2024-03-12T10:45:52.508Z,1.55
2024-03-12T10:48:44.255Z,1.38
2024-03-12T10:51:40.597Z,1.77
2024-03-12T10:54:36.655Z,1.67
2024-03-12T10:57:33.249Z,1.70
2024-03-12T11:00:28.084Z,2.00
2024-03-12T11:03:19.424Z,1.90
2024-03-12T11:06:12.560Z,2.13
2024-03-12T11:09:02.999Z,1.83
2024-03-12T11:11:56.036Z,2.25
2024-03-12T11:14:49.272Z,2.03
2024-03-12T11:17:50.868Z,1.75
2024-03-12T11:20:44.207Z,1.92
2024-03-12T11:29:49.170Z,1.60
2024-03-12T11:32:41.928Z,1.63
2024-03-12T11:35:31.596Z,1.40
2024-03-12T11:38:32.543Z,1.42
2024-03-12T11:41:20.892Z,1.42
2024-03-12T11:44:13.750Z,1.70
2024-03-12T11:47:04.878Z,1.50
2024-03-12T11:49:56.837Z,1.42
2024-03-12T11:52:46.576Z,1.30
2024-03-12T11:56:00.789Z,1.30
2024-03-12T11:58:59.793Z,1.20
2024-03-12T12:02:01.024Z,1.15
2024-03-12T12:04:58.121Z,1.25
2024-03-12T12:07:51.498Z,1.60
2024-03-12T12:10:40.029Z,1.30
2024-03-12T12:13:30.025Z,1.33
2024-03-12T12:16:20.137Z,1.13
2024-03-12T12:19:16.143Z,1.00
2024-03-12T12:22:11.693Z,0.95
2024-03-12T12:25:04.361Z,0.88
2024-03-12T12:27:52.875Z,1.00
2024-03-12T12:30:41.410Z,0.77
2024-03-12T12:33:31.723Z,1.00
2024-03-12T12:36:25.590Z,1.42
2024-03-12T12:39:19.688Z,1.13
2024-03-12T12:42:13.222Z,0.90
2024-03-12T12:45:07.618Z,0.80
2024-03-12T12:47:59.277Z,0.95
2024-03-12T12:50:56.589Z,0.85
2024-03-12T12:53:46.779Z,1.00
2024-03-12T12:56:43.811Z,0.90
2024-03-12T12:59:38.434Z,0.90
2024-03-12T13:02:31.695Z,0.77
2024-03-12T13:05:24.232Z,0.85
2024-03-12T13:08:26.823Z,0.70
2024-03-12T13:11:20.381Z,0.93
2024-03-12T13:14:10.301Z,0.80
2024-03-12T13:17:03.840Z,1.00
2024-03-12T13:19:54.663Z,0.90
2024-03-12T13:22:45.386Z,0.80
2024-03-12T13:25:33.958Z,0.95
2024-03-12T13:28:24.446Z,0.73
2024-03-12T13:31:13.287Z,0.80
2024-03-12T13:34:04.802Z,1.05
2024-03-12T13:36:53.298Z,0.63
2024-03-12T13:39:43.340Z,0.98
2024-03-12T13:42:31.984Z,0.80
2024-03-12T13:45:21.128Z,0.88
2024-03-12T13:48:13.519Z,1.00
2024-03-12T13:51:06.427Z,1.10
2024-03-12T13:53:56.108Z,1.00
2024-03-12T13:56:47.624Z,1.20
2024-03-12T13:59:37.032Z,1.27
2024-03-12T14:02:27.856Z,1.60
2024-03-12T14:05:22.168Z,1.65
2024-03-12T14:08:14.961Z,1.48
2024-03-12T14:11:10.006Z,1.40
2024-03-12T14:14:05.477Z,1.52
2024-03-12T14:16:57.609Z,2.20
2024-03-12T14:19:48.544Z,1.95
2024-03-12T14:22:39.564Z,2.72
2024-03-12T14:25:29.912Z,3.13
2024-03-12T14:28:19.836Z,3.47
2024-03-12T14:31:08.415Z,2.45
2024-03-12T14:33:57.376Z,2.90
2024-03-12T14:36:45.864Z,2.85
2024-03-12T14:39:34.689Z,3.25
2024-03-12T14:42:25.027Z,2.72
2024-03-12T14:45:14.998Z,3.78
2024-03-12T14:48:04.872Z,3.03
2024-03-12T14:50:54.869Z,3.35
2024-03-12T14:53:43.327Z,3.20
2024-03-12T14:56:32.994Z,3.70
2024-03-12T14:59:25.446Z,3.67
2024-03-12T15:02:16.629Z,3.65
2024-03-12T15:05:13.192Z,3.13
2024-03-12T15:08:03.895Z,3.47
2024-03-12T15:10:54.244Z,3.45
2024-03-12T15:13:46.776Z,3.47
2024-03-12T15:16:45.167Z,3.75
2024-03-12T15:19:35.603Z,3.60
2024-03-12T15:22:26.413Z,3.55
2024-03-12T15:25:20.694Z,3.53
2024-03-12T15:28:09.914Z,3.47
2024-03-12T15:31:00.307Z,3.20
2024-03-12T15:33:53.274Z,3.17
2024-03-12T15:36:44.561Z,3.03
2024-03-12T15:39:34.517Z,3.28
2024-03-12T15:42:24.500Z,3.33
2024-03-12T15:45:17.496Z,3.13
2024-03-12T15:48:09.861Z,3.63
2024-03-12T15:51:05.365Z,3.22
2024-03-12T15:53:59.214Z,3.92
2024-03-12T15:56:51.547Z,3.40
2024-03-12T15:59:40.803Z,3.15
2024-03-12T16:02:30.297Z,3.38
2024-03-12T16:05:18.819Z,3.40
2024-03-12T16:08:11.890Z,3.00
2024-03-12T16:13:55.045Z,3.63
2024-03-12T16:16:45.741Z,3.38
2024-03-12T16:19:35.632Z,3.88
2024-03-12T16:22:25.683Z,3.28
2024-03-12T16:25:19.982Z,3.30
2024-03-12T16:28:09.104Z,3.83
2024-03-12T16:31:00.523Z,4.15
2024-03-12T16:33:51.129Z,4.05
2024-03-12T16:36:41.443Z,4.35
2024-03-12T16:39:33.530Z,4.25
2024-03-12T16:42:26.262Z,4.22
2024-03-12T16:45:15.246Z,3.90
2024-03-12T16:48:07.692Z,3.80
2024-03-12T16:50:56.005Z,4.20
2024-03-12T16:53:44.958Z,3.83
2024-03-12T16:56:34.135Z,4.38
2024-03-12T16:59:25.365Z,4.50
2024-03-12T17:02:16.551Z,4.25
2024-03-12T17:05:06.453Z,3.90
2024-03-12T17:07:57.759Z,3.50
2024-03-12T17:10:46.511Z,3.78
2024-03-12T17:13:36.494Z,3.35
2024-03-12T17:16:31.298Z,3.28
2024-03-12T17:19:23.999Z,3.10
2024-03-12T17:22:13.036Z,3.45
2024-03-12T17:25:01.616Z,3.60
2024-03-12T17:27:53.618Z,4.40
2024-03-12T17:30:44.249Z,3.47
2024-03-12T17:33:35.461Z,4.50
2024-03-12T17:36:30.113Z,3.75
2024-03-12T17:39:26.046Z,3.78
2024-03-12T17:42:24.425Z,3.83
2024-03-12T17:45:18.190Z,4.22
2024-03-12T17:48:14.147Z,4.57
2024-03-12T17:51:13.886Z,4.22
2024-03-12T17:54:05.343Z,4.10
2024-03-12T17:57:00.597Z,5.25
2024-03-12T17:59:53.105Z,5.15
2024-03-12T18:02:47.981Z,5.47
2024-03-12T18:05:39.243Z,5.32
2024-03-12T18:08:39.259Z,5.65
2024-03-12T18:11:33.847Z,5.63
2024-03-12T18:14:26.693Z,4.95
2024-03-12T18:17:21.229Z,4.80
2024-03-12T18:20:19.050Z,4.75
2024-03-12T18:23:12.345Z,4.88
2024-03-12T18:28:57.192Z,5.03
2024-03-12T18:31:55.268Z,4.55
2024-03-12T18:34:45.962Z,4.15
2024-03-12T18:37:34.621Z,4.55
2024-03-12T18:40:24.131Z,4.90
2024-03-12T18:43:13.975Z,4.53
2024-03-12T18:46:02.493Z,4.28
2024-03-12T18:48:51.415Z,4.63
2024-03-12T18:51:45.792Z,5.13
2024-03-12T18:54:38.545Z,4.97
2024-03-12T18:57:30.258Z,5.82
2024-03-12T19:00:22.308Z,5.70
2024-03-12T19:03:19.860Z,6.28
2024-03-12T19:06:19.331Z,6.13
2024-03-12T19:09:22.272Z,5.97
2024-03-12T19:12:17.166Z,6.00
2024-03-12T19:15:09.427Z,6.45
2024-03-12T19:18:15.883Z,6.35
2024-03-12T19:21:07.383Z,5.75
2024-03-12T19:23:57.705Z,5.90
2024-03-12T19:26:47.702Z,5.10
2024-03-12T19:29:37.430Z,6.15
2024-03-12T19:32:27.917Z,5.70
2024-03-12T19:35:20.513Z,5.78
2024-03-12T19:38:12.622Z,5.35
2024-03-12T19:41:03.893Z,6.30
2024-03-12T19:43:55.402Z,6.03
2024-03-12T19:46:46.845Z,6.10
2024-03-12T19:49:37.390Z,6.55
2024-03-12T19:52:30.586Z,6.13
2024-03-12T19:55:21.717Z,6.43
2024-03-12T19:58:11.779Z,6.35
2024-03-12T20:01:02.007Z,6.55
2024-03-12T20:03:53.000Z,6.15
2024-03-12T20:06:44.934Z,6.72
2024-03-12T20:09:39.400Z,6.13
2024-03-12T20:12:29.393Z,6.57
2024-03-12T20:15:19.766Z,6.10
2024-03-12T20:18:11.761Z,5.90
2024-03-12T20:21:02.602Z,6.20
2024-03-12T20:23:54.403Z,5.93
2024-03-12T20:26:47.762Z,6.13
2024-03-12T20:29:40.011Z,5.53
2024-03-12T20:32:29.682Z,5.43
2024-03-12T20:35:19.356Z,5.78
2024-03-12T20:38:11.087Z,6.63
2024-03-12T20:41:03.363Z,5.75
2024-03-12T20:43:55.800Z,6.40
2024-03-12T20:46:47.185Z,5.60
2024-03-12T20:49:37.262Z,5.78
2024-03-12T20:52:29.829Z,6.18
2024-03-12T20:55:20.514Z,6.45
2024-03-12T20:58:11.536Z,6.13
2024-03-12T21:01:01.751Z,6.30
2024-03-12T21:03:52.337Z,6.85
2024-03-12T21:06:42.574Z,6.22
2024-03-12T21:09:33.335Z,6.05
2024-03-12T21:12:22.272Z,6.63
2024-03-12T21:15:11.459Z,7.18
2024-03-12T21:18:02.202Z,6.63
2024-03-12T21:20:53.962Z,6.78
2024-03-12T21:23:41.990Z,6.70
2024-03-12T21:26:30.762Z,7.50
2024-03-12T21:29:20.452Z,7.13
2024-03-12T21:32:09.416Z,7.35
2024-03-12T21:35:00.753Z,7.07
2024-03-12T21:37:49.371Z,7.28
2024-03-12T21:40:38.531Z,6.60
2024-03-12T21:43:26.708Z,6.60
2024-03-12T21:46:16.334Z,7.13
2024-03-12T21:49:05.635Z,6.82
2024-03-12T21:51:56.791Z,7.43
2024-03-12T21:54:45.946Z,6.82
2024-03-12T21:57:34.759Z,7.15
2024-03-12T22:00:25.743Z,6.78
2024-03-12T22:03:18.623Z,6.75
2024-03-12T22:06:08.303Z,6.70
2024-03-12T22:08:57.973Z,5.90
2024-03-12T22:11:47.039Z,6.90
2024-03-12T22:14:35.385Z,6.93
2024-03-12T22:17:23.597Z,6.82
2024-03-12T22:20:16.652Z,6.75
2024-03-12T22:23:11.811Z,6.55
2024-03-12T22:26:02.502Z,6.70
2024-03-12T22:28:56.141Z,6.70
2024-03-12T22:31:44.517Z,7.05
2024-03-12T22:34:35.429Z,7.35
2024-03-12T22:37:23.863Z,6.50
2024-03-12T22:40:14.216Z,6.20
2024-03-12T22:43:04.703Z,7.28
2024-03-12T22:45:53.132Z,7.10
2024-03-12T22:48:44.052Z,7.25
2024-03-12T22:51:33.497Z,6.93
2024-03-12T22:54:22.157Z,6.55
2024-03-12T22:57:11.955Z,7.00
2024-03-12T23:00:02.637Z,7.18
2024-03-12T23:02:50.862Z,6.78
2024-03-12T23:05:42.081Z,6.53
2024-03-12T23:08:31.685Z,6.95
2024-03-12T23:11:23.107Z,6.35
2024-03-12T23:14:12.559Z,7.00
2024-03-12T23:17:02.559Z,7.32
2024-03-12T23:19:51.814Z,6.63
2024-03-12T23:22:40.485Z,6.95
2024-03-12T23:25:31.340Z,6.85
2024-03-12T23:28:21.768Z,6.60
2024-03-12T23:31:10.354Z,6.93
2024-03-12T23:34:02.105Z,6.47
2024-03-12T23:36:50.810Z,6.30
2024-03-12T23:39:39.245Z,6.88
2024-03-12T23:42:28.015Z,6.22
2024-03-12T23:45:20.246Z,6.95
2024-03-12T23:48:08.813Z,6.28
2024-03-12T23:51:00.221Z,6.78
2024-03-12T23:53:49.799Z,6.18
2024-03-12T23:56:39.849Z,7.43
2024-03-12T23:59:29.560Z,6.68
